Time;durP1;ratioP1;P1;durP2;ratioP2;P2;SDS_P1;SDS_P2;PMS_P1;PMS_P2;Temp;Humidity;BMP_temperature;BMP_pressure;BME280_temperature;BME280_humidity;BME280_pressure;Samples;Min_cycle;Max_cycle;Signal;HPM_P1;HPM_P2
2023/01/04 00:01:07;;;;;;;5.03;1.20;;;16.00;94.20;;;;;;5087257;28;20033;-72
2023/01/04 00:03:33;;;;;;;2.83;1.00;;;16.00;94.20;;;;;;5073085;28;20027;-72
2023/01/04 00:06:00;;;;;;;2.40;0.70;;;16.00;94.20;;;;;;5072649;28;20085;-72
2023/01/04 00:08:26;;;;;;;3.15;1.08;;;16.00;94.30;;;;;;5072916;28;20456;-72
2023/01/04 00:10:52;;;;;;;4.10;1.13;;;16.00;94.30;;;;;;5072995;28;20100;-71
2023/01/04 00:13:17;;;;;;;3.20;1.10;;;15.90;94.40;;;;;;5088541;28;20024;-72
2023/01/04 00:15:43;;;;;;;2.72;1.33;;;15.90;94.40;;;;;;5072778;28;20024;-71
2023/01/04 00:18:08;;;;;;;2.65;0.90;;;15.80;94.40;;;;;;5073050;28;20381;-72
2023/01/04 00:20:34;;;;;;;2.35;0.82;;;16.00;94.40;;;;;;5072908;28;20454;-73
2023/01/04 00:22:59;;;;;;;3.20;0.73;;;15.90;94.40;;;;;;5073010;28;20078;-72
2023/01/04 00:25:25;;;;;;;2.13;0.90;;;15.90;94.40;;;;;;5073228;28;20449;-72
2023/01/04 00:27:51;;;;;;;2.92;0.77;;;15.90;94.40;;;;;;5072858;28;20373;-72
2023/01/04 00:30:17;;;;;;;2.50;0.77;;;16.00;94.40;;;;;;5071035;28;20064;-72
2023/01/04 00:32:44;;;;;;;2.53;0.57;;;16.00;94.40;;;;;;5071267;28;20057;-72
2023/01/04 00:35:10;;;;;;;2.13;0.70;;;16.00;94.40;;;;;;5072884;28;20526;-72
2023/01/04 00:37:36;;;;;;;3.00;1.23;;;15.90;94.40;;;;;;5072113;28;20029;-72
2023/01/04 00:40:02;;;;;;;3.47;1.30;;;15.90;94.40;;;;;;5072864;28;20381;-72
2023/01/04 00:42:27;;;;;;;1.85;0.68;;;15.90;94.40;;;;;;5071724;28;20154;-72
2023/01/04 00:44:53;;;;;;;3.60;1.02;;;16.00;94.40;;;;;;5072769;28;20105;-72
2023/01/04 00:47:18;;;;;;;3.72;1.10;;;15.90;94.50;;;;;;5071378;28;20025;-72
2023/01/04 00:49:44;;;;;;;2.25;0.68;;;15.90;94.50;;;;;;5072572;28;20028;-71
2023/01/04 00:52:09;;;;;;;4.80;1.00;;;15.90;94.50;;;;;;5072588;28;20024;-72
2023/01/04 00:54:35;;;;;;;2.75;0.88;;;15.90;94.50;;;;;;5072581;28;20029;-72
2023/01/04 00:57:01;;;;;;;2.70;0.80;;;15.90;94.50;;;;;;5072380;28;20040;-72
2023/01/04 00:59:27;;;;;;;2.63;0.80;;;15.90;94.50;;;;;;5072236;28;20096;-72
2023/01/04 01:01:52;;;;;;;1.50;0.77;;;15.80;94.60;;;;;;5072366;28;20392;-72
2023/01/04 01:04:21;;;;;;;2.65;0.82;;;15.80;94.70;;;;;;5072611;28;20024;-72
2023/01/04 01:06:47;;;;;;;1.73;0.60;;;15.80;94.70;;;;;;5071611;28;20124;-72
2023/01/04 01:09:14;;;;;;;3.13;0.82;;;15.80;94.70;;;;;;5056233;28;20190;-72
2023/01/04 01:11:40;;;;;;;1.80;0.80;;;15.80;94.80;;;;;;5051303;28;20108;-72
2023/01/04 01:14:07;;;;;;;2.13;0.75;;;15.80;94.80;;;;;;5051798;28;20049;-72
2023/01/04 01:16:33;;;;;;;3.78;0.82;;;15.80;94.70;;;;;;5051194;28;20032;-72
2023/01/04 01:18:58;;;;;;;2.88;0.73;;;15.80;94.70;;;;;;5052391;28;20024;-72
2023/01/04 01:21:26;;;;;;;1.58;0.57;;;15.90;94.80;;;;;;5052210;28;20047;-72
2023/01/04 01:23:53;;;;;;;1.25;0.60;;;15.80;94.80;;;;;;5052231;28;20470;-72
2023/01/04 01:26:21;;;;;;;1.42;0.63;;;15.90;94.80;;;;;;5051989;28;20029;-72
2023/01/04 01:28:47;;;;;;;1.88;0.60;;;15.80;94.80;;;;;;5052233;28;20370;-72
2023/01/04 01:31:15;;;;;;;3.03;0.85;;;15.80;94.80;;;;;;5052099;28;20037;-72
2023/01/04 01:33:43;;;;;;;2.65;0.40;;;15.80;94.90;;;;;;5052061;28;20029;-72
2023/01/04 01:36:10;;;;;;;2.65;0.88;;;15.80;94.80;;;;;;5052158;28;20529;-72
2023/01/04 01:38:36;;;;;;;2.13;0.68;;;15.80;94.80;;;;;;5052064;28;20386;-72
2023/01/04 01:41:03;;;;;;;1.38;0.60;;;15.80;94.90;;;;;;5051085;28;20040;-72
2023/01/04 01:43:51;;;;;;;2.20;0.50;;;15.80;94.90;;;;;;5051978;28;20021;-72
2023/01/04 01:46:29;;;;;;;2.22;0.70;;;15.80;94.90;;;;;;5050720;28;20074;-72
2023/01/04 01:49:00;;;;;;;2.47;0.63;;;15.80;94.90;;;;;;5051893;28;20082;-72
2023/01/04 01:51:26;;;;;;;1.38;0.55;;;15.80;94.90;;;;;;5051978;28;20021;-72
2023/01/04 01:53:58;;;;;;;1.40;0.60;;;15.80;95.00;;;;;;5052852;28;20040;-72
2023/01/04 01:56:26;;;;;;;1.13;0.55;;;15.80;95.00;;;;;;5055364;28;20060;-73
2023/01/04 01:58:54;;;;;;;1.23;0.47;;;15.80;94.90;;;;;;5054977;28;20039;-72
2023/01/04 02:01:20;;;;;;;1.83;0.50;;;15.80;95.00;;;;;;5055694;28;20029;-72
2023/01/04 02:03:46;;;;;;;2.08;0.80;;;15.80;95.00;;;;;;5055397;28;20486;-72
2023/01/04 02:06:17;;;;;;;1.30;0.40;;;15.80;95.10;;;;;;5055860;28;20036;-72
2023/01/04 02:08:44;;;;;;;1.70;0.70;;;15.80;95.10;;;;;;5055304;28;20116;-72
2023/01/04 02:11:10;;;;;;;1.65;0.43;;;15.80;95.10;;;;;;5055663;28;20608;-72
2023/01/04 02:16:49;;;;;;;1.20;0.40;;;15.80;95.10;;;;;;5055480;28;20031;-72
2023/01/04 02:19:41;;;;;;;1.00;0.30;;;15.80;95.10;;;;;;5055251;28;20039;-72
2023/01/04 02:22:39;;;;;;;2.40;0.57;;;15.80;95.10;;;;;;5055594;28;20025;-72
2023/01/04 02:25:29;;;;;;;1.20;0.40;;;15.80;95.20;;;;;;5054984;28;20101;-72
2023/01/04 02:27:59;;;;;;;1.65;0.30;;;15.80;95.20;;;;;;5053025;28;20043;-72
2023/01/04 02:30:34;;;;;;;2.00;0.40;;;15.80;95.20;;;;;;5053472;28;20028;-72
2023/01/04 02:33:18;;;;;;;2.38;0.60;;;15.60;95.30;;;;;;5055042;28;20037;-73
2023/01/04 02:36:04;;;;;;;1.02;0.25;;;15.70;95.30;;;;;;5054894;28;20028;-72
2023/01/04 02:39:00;;;;;;;3.50;0.40;;;15.80;95.30;;;;;;5054923;28;20025;-72
2023/01/04 02:42:00;;;;;;;1.80;0.52;;;15.80;95.30;;;;;;5053482;28;20462;-72
2023/01/04 02:45:03;;;;;;;1.50;0.30;;;15.80;95.30;;;;;;5054665;28;20433;-72
2023/01/04 02:50:30;;;;;;;2.05;0.52;;;15.80;95.30;;;;;;5054403;28;20535;-72
2023/01/04 02:53:21;;;;;;;1.95;0.63;;;15.80;95.30;;;;;;5054826;28;20056;-72
2023/01/04 02:56:04;;;;;;;2.47;0.65;;;15.70;95.40;;;;;;5054904;28;20028;-73
2023/01/04 02:59:02;;;;;;;1.45;0.40;;;15.70;95.40;;;;;;5053567;28;20445;-72
2023/01/04 03:07:55;;;;;;;2.75;0.43;;;15.70;95.50;;;;;;5054490;28;20040;-73
2023/01/04 03:10:45;;;;;;;1.25;0.35;;;15.70;95.50;;;;;;5053180;28;20036;-73
2023/01/04 03:13:25;;;;;;;0.93;0.35;;;15.70;95.50;;;;;;5052989;28;20470;-73
2023/01/04 03:16:00;;;;;;;1.83;0.40;;;15.70;95.50;;;;;;5054100;28;20025;-73
2023/01/04 03:18:34;;;;;;;1.05;0.38;;;15.70;95.50;;;;;;5054227;28;20049;-73
2023/01/04 03:21:02;;;;;;;0.60;0.13;;;15.70;95.60;;;;;;5062712;28;20039;-72
2023/01/04 03:43:08;;;;;;;1.52;0.30;;;15.80;95.60;;;;;;5073608;28;20516;-73
2023/01/04 03:49:35;;;;;;;0.95;0.25;;;15.70;95.80;;;;;;5073521;28;20086;-72
2023/01/04 03:52:03;;;;;;;1.63;0.60;;;15.80;95.80;;;;;;5073270;28;20024;-72
2023/01/04 03:54:42;;;;;;;1.17;0.28;;;15.70;95.80;;;;;;5073489;28;20025;-72
2023/01/04 03:57:08;;;;;;;1.30;0.38;;;15.70;95.90;;;;;;5073188;28;20029;-72
2023/01/04 03:59:46;;;;;;;0.93;0.30;;;15.70;95.80;;;;;;5072023;28;20440;-72
2023/01/04 04:02:13;;;;;;;1.17;0.20;;;15.70;95.80;;;;;;5073165;28;20061;-72
2023/01/04 04:10:10;;;;;;;1.63;0.40;;;15.70;95.90;;;;;;5072482;28;20451;-72
2023/01/04 04:12:36;;;;;;;1.20;0.30;;;15.70;95.90;;;;;;5073164;28;20024;-72
2023/01/04 04:15:01;;;;;;;1.85;0.40;;;15.70;95.90;;;;;;5073081;28;20028;-72
2023/01/04 04:17:27;;;;;;;1.13;0.30;;;15.70;95.90;;;;;;5072829;28;20055;-72
2023/01/04 04:19:52;;;;;;;1.42;0.40;;;15.70;95.90;;;;;;5071766;28;20113;-72
2023/01/04 04:22:18;;;;;;;1.50;0.20;;;15.70;95.90;;;;;;5072482;28;20051;-72
2023/01/04 04:24:43;;;;;;;1.38;0.30;;;15.70;95.90;;;;;;5073142;28;20060;-72
2023/01/04 04:27:09;;;;;;;2.20;0.25;;;15.80;95.90;;;;;;5071574;28;20115;-72
2023/01/04 04:29:34;;;;;;;1.70;0.75;;;15.70;95.90;;;;;;5073186;28;20032;-72
2023/01/04 04:32:00;;;;;;;0.75;0.22;;;15.70;95.90;;;;;;5072794;28;20040;-72
2023/01/04 04:34:25;;;;;;;0.70;0.30;;;15.70;96.00;;;;;;5072864;28;20031;-74
2023/01/04 04:36:51;;;;;;;1.30;0.32;;;15.70;96.10;;;;;;5072728;28;20032;-72
2023/01/04 04:39:17;;;;;;;0.98;0.30;;;15.70;96.10;;;;;;5072869;28;20025;-73
2023/01/04 04:41:42;;;;;;;1.80;0.60;;;15.80;96.10;;;;;;5072687;28;20028;-72
2023/01/04 04:44:11;;;;;;;1.48;0.20;;;15.70;96.10;;;;;;5072714;28;20457;-73
2023/01/04 04:46:37;;;;;;;1.00;0.28;;;15.70;96.10;;;;;;5072604;28;20016;-72
2023/01/04 04:49:04;;;;;;;0.40;0.20;;;15.70;96.20;;;;;;5072607;28;20025;-72
2023/01/04 04:51:30;;;;;;;1.45;0.22;;;15.70;96.20;;;;;;5072492;28;20025;-73
2023/01/04 04:53:55;;;;;;;0.75;0.30;;;15.70;96.10;;;;;;5072417;28;20115;-73
2023/01/04 04:56:21;;;;;;;0.38;0.17;;;15.70;96.20;;;;;;5072416;28;20173;-72
2023/01/04 04:58:47;;;;;;;1.73;0.32;;;15.70;96.20;;;;;;5072574;28;20043;-72
2023/01/04 05:01:13;;;;;;;1.73;0.32;;;15.70;96.10;;;;;;5072521;28;20027;-72
2023/01/04 05:03:38;;;;;;;0.95;0.50;;;15.70;96.20;;;;;;5072543;28;20040;-72
2023/01/04 05:06:04;;;;;;;1.27;0.20;;;15.80;96.20;;;;;;5072265;28;20020;-72
2023/01/04 05:08:30;;;;;;;0.98;0.30;;;15.80;96.20;;;;;;5072387;28;20016;-72
2023/01/04 05:10:55;;;;;;;1.70;0.30;;;15.80;96.20;;;;;;5072521;28;20023;-73
2023/01/04 05:13:21;;;;;;;1.15;0.30;;;15.80;96.20;;;;;;5072838;28;20021;-72
2023/01/04 05:15:49;;;;;;;1.20;0.20;;;15.70;96.30;;;;;;5072480;28;20035;-73
2023/01/04 05:18:17;;;;;;;0.65;0.20;;;15.70;96.20;;;;;;5072052;28;20075;-72
2023/01/04 05:20:43;;;;;;;1.17;0.32;;;15.70;96.30;;;;;;5072580;28;20085;-72
2023/01/04 05:23:12;;;;;;;1.20;0.32;;;15.70;96.30;;;;;;5072139;28;20461;-72
2023/01/04 05:25:38;;;;;;;1.17;0.30;;;15.70;96.30;;;;;;5072439;28;20482;-72
2023/01/04 05:28:04;;;;;;;1.23;0.20;;;15.70;96.30;;;;;;5072119;28;20089;-72
2023/01/04 05:33:14;;;;;;;1.70;0.50;;;15.70;96.30;;;;;;5075755;28;20559;-73
2023/01/04 05:35:40;;;;;;;1.33;0.17;;;15.70;96.40;;;;;;5076332;28;20103;-72
2023/01/04 05:38:05;;;;;;;0.82;0.30;;;15.80;96.40;;;;;;5075957;28;20447;-72
2023/01/04 05:40:31;;;;;;;1.30;0.28;;;15.70;96.40;;;;;;5076173;28;20471;-73
2023/01/04 05:42:56;;;;;;;1.10;0.20;;;15.70;96.40;;;;;;5075852;28;20029;-72
2023/01/04 05:45:22;;;;;;;0.73;0.15;;;15.70;96.50;;;;;;5076327;28;20016;-72
2023/01/04 05:47:49;;;;;;;1.52;0.30;;;15.70;96.50;;;;;;5075541;28;20068;-73
2023/01/04 05:50:16;;;;;;;2.20;0.43;;;15.70;96.50;;;;;;5075835;28;20024;-72
2023/01/04 05:52:41;;;;;;;1.02;0.35;;;16.10;96.40;;;;;;5075815;28;20031;-72
2023/01/04 05:55:07;;;;;;;2.00;0.28;;;16.30;95.00;;;;;;5075776;28;20103;-72
2023/01/04 05:57:33;;;;;;;1.52;0.35;;;16.40;94.30;;;;;;5075525;28;20032;-72
2023/01/04 05:59:58;;;;;;;0.43;0.10;;;16.40;94.00;;;;;;5075421;28;20115;-71
2023/01/04 06:02:27;;;;;;;1.08;0.40;;;16.50;93.90;;;;;;5056978;28;20044;-72
2023/01/04 06:04:52;;;;;;;1.48;0.40;;;16.50;93.80;;;;;;5071778;28;20032;-72
2023/01/04 06:07:18;;;;;;;0.82;0.20;;;16.50;93.70;;;;;;5068903;28;20037;-72
2023/01/04 06:09:44;;;;;;;0.82;0.30;;;16.50;93.70;;;;;;5075458;28;20027;-72
2023/01/04 06:12:10;;;;;;;0.75;0.10;;;16.50;93.70;;;;;;5075401;28;20469;-72
2023/01/04 06:14:35;;;;;;;0.90;0.20;;;16.50;93.70;;;;;;5075223;28;20024;-72
2023/01/04 06:17:01;;;;;;;0.98;0.17;;;16.50;93.60;;;;;;5066499;28;20051;-71
2023/01/04 06:19:26;;;;;;;1.23;0.30;;;16.60;93.80;;;;;;5069862;28;20013;-71
2023/01/04 06:21:52;;;;;;;0.63;0.20;;;16.50;94.40;;;;;;5075375;28;20024;-72
2023/01/04 06:24:18;;;;;;;0.50;0.10;;;16.50;94.80;;;;;;5075239;28;20027;-72
2023/01/04 06:26:43;;;;;;;0.90;0.13;;;16.60;94.20;;;;;;5073923;28;20261;-72
2023/01/04 06:29:09;;;;;;;3.65;0.45;;;16.60;94.10;;;;;;5072173;28;20501;-71
2023/01/04 06:31:35;;;;;;;3.92;0.57;;;16.40;95.20;;;;;;5073563;28;20127;-73
2023/01/04 06:34:01;;;;;;;3.75;0.22;;;16.20;96.00;;;;;;5073790;28;20046;-72
2023/01/04 06:36:26;;;;;;;2.28;0.20;;;16.00;96.50;;;;;;5074019;28;20117;-73
2023/01/04 06:38:52;;;;;;;3.40;0.30;;;15.90;96.70;;;;;;5073049;28;20557;-72
2023/01/04 06:41:18;;;;;;;1.33;0.20;;;15.90;96.70;;;;;;5072958;28;20473;-72
2023/01/04 06:43:43;;;;;;;1.55;0.20;;;15.90;96.80;;;;;;5075132;28;20059;-72
2023/01/04 06:46:09;;;;;;;1.70;0.20;;;15.80;97.00;;;;;;5074369;28;20034;-72
2023/01/04 06:48:35;;;;;;;4.25;0.35;;;15.80;97.00;;;;;;5074843;28;20021;-72
2023/01/04 06:51:00;;;;;;;2.15;0.43;;;15.90;97.10;;;;;;5073432;28;20055;-72
2023/01/04 06:53:26;;;;;;;3.05;0.22;;;15.90;97.10;;;;;;5074702;28;20024;-72
2023/01/04 06:55:51;;;;;;;0.90;0.30;;;15.90;97.20;;;;;;5074622;28;20036;-72
2023/01/04 06:58:17;;;;;;;2.85;0.45;;;15.90;97.20;;;;;;5074446;28;20038;-73
2023/01/04 07:00:43;;;;;;;1.40;0.20;;;15.90;97.20;;;;;;5074399;28;20020;-72
2023/01/04 07:03:08;;;;;;;0.90;0.10;;;15.90;97.30;;;;;;5075016;28;20389;-72
2023/01/04 07:05:34;;;;;;;1.55;0.55;;;16.00;97.30;;;;;;5074400;28;20025;-73
2023/01/04 07:08:03;;;;;;;2.85;0.45;;;16.00;97.40;;;;;;5074484;28;20020;-72
2023/01/04 07:10:29;;;;;;;2.35;0.20;;;15.90;97.40;;;;;;5074187;28;20025;-72
2023/01/04 07:12:55;;;;;;;2.45;0.40;;;15.90;97.40;;;;;;5074397;28;20476;-72
2023/01/04 07:15:21;;;;;;;1.73;0.40;;;15.90;97.40;;;;;;5073880;28;20028;-73
2023/01/04 07:17:47;;;;;;;1.35;0.40;;;15.90;97.50;;;;;;5074362;28;20044;-73
2023/01/04 07:20:13;;;;;;;1.92;0.30;;;15.90;97.40;;;;;;5073910;28;20021;-72
2023/01/04 07:22:38;;;;;;;1.90;0.30;;;15.90;97.70;;;;;;5074081;28;20054;-71
2023/01/04 07:25:04;;;;;;;2.13;0.20;;;16.00;97.60;;;;;;5074184;28;20078;-72
2023/01/04 07:27:30;;;;;;;2.28;0.40;;;15.90;97.70;;;;;;5073965;28;20024;-71
2023/01/04 07:29:55;;;;;;;0.80;0.30;;;16.00;97.70;;;;;;5073509;28;20024;-72
2023/01/04 07:32:21;;;;;;;1.20;0.20;;;15.90;97.70;;;;;;5073696;28;20049;-72
2023/01/04 07:34:46;;;;;;;2.22;0.40;;;16.00;97.80;;;;;;5073746;28;20024;-71
2023/01/04 07:37:13;;;;;;;1.27;0.30;;;16.00;97.80;;;;;;5072554;28;20145;-71
2023/01/04 07:39:39;;;;;;;1.73;0.28;;;16.00;97.80;;;;;;5073941;28;20492;-72
2023/01/04 07:42:05;;;;;;;3.70;0.30;;;16.00;97.80;;;;;;5072188;28;20029;-71
2023/01/04 07:44:30;;;;;;;2.40;0.20;;;16.00;97.90;;;;;;5073418;28;20108;-71
2023/01/04 07:46:56;;;;;;;1.25;0.20;;;16.00;98.00;;;;;;5073528;28;20035;-71
2023/01/04 07:49:22;;;;;;;3.55;0.22;;;16.00;98.00;;;;;;5073683;28;20031;-71
2023/01/04 07:51:48;;;;;;;2.92;0.40;;;16.00;98.00;;;;;;5073177;28;20021;-71
2023/01/04 07:54:16;;;;;;;1.70;0.32;;;16.00;98.00;;;;;;5072305;28;20027;-71
2023/01/04 07:56:42;;;;;;;3.30;0.50;;;16.00;98.00;;;;;;5073210;28;20546;-72
2023/01/04 07:59:12;;;;;;;1.90;0.25;;;16.00;98.10;;;;;;5073165;28;20035;-71
2023/01/04 08:01:38;;;;;;;2.05;0.40;;;16.00;98.10;;;;;;5073445;28;20146;-72
2023/01/04 08:04:05;;;;;;;3.67;0.50;;;16.00;98.00;;;;;;5073369;28;20071;-72
2023/01/04 08:06:31;;;;;;;3.25;0.85;;;16.00;98.00;;;;;;5073230;28;20554;-72
2023/01/04 08:09:00;;;;;;;2.53;0.40;;;16.00;97.90;;;;;;5073270;28;20059;-71
2023/01/04 08:11:26;;;;;;;3.28;0.57;;;16.00;97.90;;;;;;5072930;28;20095;-72
2023/01/04 08:13:52;;;;;;;1.75;0.40;;;16.10;97.90;;;;;;5072859;28;20060;-72
2023/01/04 08:16:23;;;;;;;3.75;0.40;;;16.00;97.90;;;;;;5072622;28;20025;-71
2023/01/04 08:18:56;;;;;;;5.85;0.73;;;16.10;97.80;;;;;;5073322;28;20432;-72
2023/01/04 08:21:23;;;;;;;3.15;0.82;;;16.00;97.80;;;;;;5072885;28;20033;-72
2023/01/04 08:23:49;;;;;;;2.28;0.40;;;16.10;97.80;;;;;;5073053;28;20047;-72
2023/01/04 08:26:15;;;;;;;2.40;0.43;;;16.00;97.80;;;;;;5072763;28;20367;-72
2023/01/04 08:28:41;;;;;;;3.63;0.75;;;16.10;97.90;;;;;;5072676;28;20017;-73
2023/01/04 08:31:11;;;;;;;4.05;0.50;;;16.10;97.90;;;;;;5072494;28;20032;-72
2023/01/04 08:33:37;;;;;;;3.22;0.55;;;16.10;97.90;;;;;;5072079;28;20516;-72
2023/01/04 08:36:16;;;;;;;3.58;0.50;;;16.10;97.80;;;;;;5072246;28;20024;-71
2023/01/04 08:38:41;;;;;;;3.50;0.60;;;16.10;98.00;;;;;;5073043;28;20028;-71
2023/01/04 08:41:07;;;;;;;1.98;0.30;;;16.10;98.00;;;;;;5072498;28;20373;-72
2023/01/04 08:43:34;;;;;;;1.90;0.20;;;16.10;98.00;;;;;;5072763;28;20110;-71
2023/01/04 08:46:00;;;;;;;2.13;0.30;;;16.10;98.10;;;;;;5072336;28;20016;-72
2023/01/04 08:48:26;;;;;;;2.60;0.30;;;16.10;98.00;;;;;;5070984;28;20109;-71
2023/01/04 08:50:51;;;;;;;2.20;0.40;;;16.10;98.10;;;;;;5072614;28;20440;-71
2023/01/04 08:53:17;;;;;;;3.80;0.65;;;16.10;98.10;;;;;;5072046;28;20521;-72
2023/01/04 08:55:48;;;;;;;2.38;0.28;;;16.20;98.10;;;;;;5072331;28;20025;-72
2023/01/04 08:58:14;;;;;;;1.07;0.37;;;16.10;98.10;;;;;;5071622;28;20483;-72
2023/01/04 09:00:40;;;;;;;2.10;0.50;;;16.10;98.10;;;;;;5072573;28;20321;-72
2023/01/04 09:03:05;;;;;;;3.60;0.25;;;16.10;98.10;;;;;;5071518;28;20119;-72
2023/01/04 09:05:31;;;;;;;1.33;0.45;;;16.10;98.00;;;;;;5071182;28;20078;-72
2023/01/04 09:07:58;;;;;;;3.10;0.30;;;16.10;98.00;;;;;;5070999;28;20036;-72
2023/01/04 09:10:24;;;;;;;5.07;0.68;;;16.20;98.00;;;;;;5071934;28;20044;-71
2023/01/04 09:12:50;;;;;;;1.75;0.40;;;16.20;98.00;;;;;;5071964;28;20025;-72
2023/01/04 09:15:16;;;;;;;1.02;0.40;;;16.20;98.00;;;;;;5072361;28;20470;-72
2023/01/04 09:17:42;;;;;;;2.25;0.40;;;16.20;98.00;;;;;;5072198;28;20040;-72
2023/01/04 09:20:07;;;;;;;3.30;0.90;;;16.20;98.10;;;;;;5072328;28;20478;-72
2023/01/04 09:22:33;;;;;;;2.53;0.45;;;16.20;98.10;;;;;;5071933;28;20040;-72
2023/01/04 09:24:58;;;;;;;3.42;0.50;;;16.20;98.10;;;;;;5072089;28;20025;-72
2023/01/04 09:27:24;;;;;;;2.22;0.73;;;16.20;98.10;;;;;;5072120;28;20029;-71
2023/01/04 09:29:50;;;;;;;2.88;0.82;;;16.20;98.00;;;;;;5071276;28;20029;-72
2023/01/04 09:32:15;;;;;;;3.78;1.02;;;16.20;98.00;;;;;;5070963;28;20481;-72
2023/01/04 09:34:41;;;;;;;3.13;0.55;;;16.20;98.10;;;;;;5070700;28;20486;-72
2023/01/04 09:37:07;;;;;;;2.30;0.40;;;16.20;98.20;;;;;;5064071;28;20037;-72
2023/01/04 09:39:33;;;;;;;3.65;0.50;;;16.20;98.20;;;;;;5071809;28;20013;-71
2023/01/04 09:42:02;;;;;;;1.85;0.40;;;16.20;98.20;;;;;;5072116;28;20028;-72
2023/01/04 09:44:44;;;;;;;2.42;0.32;;;16.20;98.20;;;;;;5071808;28;20009;-72
2023/01/04 09:47:17;;;;;;;3.28;0.65;;;16.20;98.10;;;;;;5070750;28;20082;-72
2023/01/04 09:49:45;;;;;;;;;;;16.20;98.20;;;;;;5072199;28;20384;-72
2023/01/04 09:52:44;;;;;;;3.22;0.60;;;16.20;98.20;;;;;;5072124;28;19911;-73
2023/01/04 09:55:22;;;;;;;3.08;0.80;;;16.20;98.30;;;;;;5071862;28;20544;-72
2023/01/04 09:57:52;;;;;;;3.60;0.55;;;16.20;98.30;;;;;;5071815;28;20032;-72
2023/01/04 10:00:29;;;;;;;2.05;0.57;;;16.20;98.30;;;;;;5071928;28;20465;-72
2023/01/04 10:03:22;;;;;;;2.10;0.35;;;16.20;98.50;;;;;;5072049;28;20366;-72
2023/01/04 10:05:49;;;;;;;1.60;0.28;;;16.20;98.40;;;;;;5071780;28;20027;-72
2023/01/04 10:08:16;;;;;;;0.95;0.25;;;16.20;98.60;;;;;;5071583;28;20479;-72
2023/01/04 10:11:08;;;;;;;4.05;0.57;;;16.20;98.50;;;;;;5071987;28;20031;-71
2023/01/04 10:13:51;;;;;;;3.50;0.70;;;16.20;98.50;;;;;;5043101;28;20397;-71
2023/01/04 10:16:41;;;;;;;3.03;0.43;;;16.30;98.60;;;;;;5073854;28;20035;-72
2023/01/04 10:19:38;;;;;;;2.15;0.30;;;16.30;98.50;;;;;;5075333;28;20085;-72
2023/01/04 10:22:39;;;;;;;1.85;0.30;;;16.30;98.60;;;;;;5075447;28;20024;-72
2023/01/04 10:25:42;;;;;;;2.35;0.40;;;16.20;98.60;;;;;;5074912;28;20026;-72
2023/01/04 10:28:19;;;;;;;1.83;0.40;;;16.30;98.60;;;;;;5075351;28;20017;-72
2023/01/04 10:30:45;;;;;;;1.33;0.20;;;16.30;98.60;;;;;;5073364;28;20478;-72
2023/01/04 10:33:14;;;;;;;2.08;0.20;;;16.30;98.60;;;;;;5074645;28;20074;-71
2023/01/04 10:35:44;;;;;;;2.10;0.20;;;16.30;98.70;;;;;;5074644;28;20424;-72
2023/01/04 10:38:34;;;;;;;1.30;0.22;;;16.20;98.90;;;;;;5074573;28;20390;-71
2023/01/04 10:41:05;;;;;;;1.15;0.30;;;16.30;99.00;;;;;;5074769;28;20450;-71
2023/01/04 10:43:55;;;;;;;1.80;0.30;;;16.30;99.00;;;;;;5074996;28;20028;-71
2023/01/04 10:46:48;;;;;;;1.55;0.30;;;16.30;98.80;;;;;;5074355;28;20275;-71
2023/01/04 10:49:26;;;;;;;1.35;0.22;;;16.30;99.00;;;;;;5065857;28;20525;-70
2023/01/04 10:52:14;;;;;;;0.52;0.10;;;16.30;99.00;;;;;;5074647;28;20025;-72
2023/01/04 10:54:56;;;;;;;0.60;0.15;;;16.30;98.90;;;;;;5074170;28;20024;-70
2023/01/04 10:57:34;;;;;;;1.50;0.20;;;16.30;99.00;;;;;;5073515;28;20024;-72
2023/01/04 11:00:02;;;;;;;1.17;0.20;;;16.40;98.90;;;;;;5073694;28;20036;-72
2023/01/04 11:02:46;;;;;;;0.32;0.15;;;16.30;99.00;;;;;;5074473;28;20152;-72
2023/01/04 11:05:23;;;;;;;0.80;0.15;;;16.30;99.00;;;;;;5074301;28;20107;-72
2023/01/04 11:08:27;;;;;;;0.55;0.17;;;16.30;99.10;;;;;;5054225;28;20114;-72
2023/01/04 11:11:03;;;;;;;0.50;0.20;;;16.30;99.00;;;;;;5026348;28;20028;-72
2023/01/04 11:13:30;;;;;;;1.95;0.47;;;16.30;99.00;;;;;;5031877;28;20049;-72
2023/01/04 11:15:56;;;;;;;0.65;0.13;;;16.30;99.00;;;;;;5054793;28;20485;-71
2023/01/04 11:18:22;;;;;;;2.22;0.30;;;16.30;99.00;;;;;;5074468;28;20032;-74
2023/01/04 11:20:47;;;;;;;1.05;0.20;;;16.30;99.00;;;;;;5073741;28;20028;-72
2023/01/04 11:23:19;;;;;;;0.85;0.20;;;16.30;99.00;;;;;;5073945;28;20469;-72
2023/01/04 11:25:57;;;;;;;0.50;0.20;;;16.30;98.90;;;;;;5073980;28;20608;-72
2023/01/04 11:28:29;;;;;;;0.85;0.20;;;16.40;99.00;;;;;;5073717;28;20020;-73
2023/01/04 11:31:00;;;;;;;1.10;0.20;;;16.40;98.90;;;;;;5073399;28;20036;-73
2023/01/04 11:33:26;;;;;;;1.40;0.10;;;16.40;98.80;;;;;;5073800;28;20444;-72
2023/01/04 11:35:57;;;;;;;0.60;0.10;;;16.40;98.90;;;;;;5073385;28;20052;-72
2023/01/04 11:38:28;;;;;;;1.42;0.10;;;16.40;99.00;;;;;;5073608;28;20378;-72
2023/01/04 11:40:58;;;;;;;0.63;0.10;;;16.40;99.00;;;;;;5073463;28;20013;-72
2023/01/04 11:43:27;;;;;;;0.45;0.10;;;16.40;98.80;;;;;;5073559;28;20370;-73
2023/01/04 11:45:54;;;;;;;0.77;0.20;;;16.50;98.70;;;;;;5073212;28;20050;-73
2023/01/04 11:48:34;;;;;;;1.58;0.20;;;16.40;98.80;;;;;;5073640;28;20028;-73
2023/01/04 11:51:00;;;;;;;0.25;0.08;;;16.40;98.80;;;;;;5073196;28;20017;-73
2023/01/04 11:53:29;;;;;;;0.93;0.17;;;16.40;98.90;;;;;;5072605;28;20031;-73
2023/01/04 11:56:12;;;;;;;0.35;0.00;;;16.40;98.90;;;;;;5072983;28;20017;-72
2023/01/04 11:58:38;;;;;;;0.20;0.10;;;16.40;98.80;;;;;;5053561;28;20043;-72
2023/01/04 12:01:04;;;;;;;1.25;0.20;;;16.40;98.90;;;;;;5060806;28;20036;-72
2023/01/04 12:03:39;;;;;;;0.63;0.10;;;16.50;98.90;;;;;;5073209;28;20024;-72
2023/01/04 12:06:36;;;;;;;1.52;0.15;;;16.40;99.00;;;;;;5072992;28;20028;-72
2023/01/04 12:09:01;;;;;;;0.80;0.10;;;16.40;98.90;;;;;;5072746;28;20040;-73
2023/01/04 12:11:34;;;;;;;1.17;0.00;;;16.50;98.80;;;;;;5071994;28;20522;-73
2023/01/04 12:14:01;;;;;;;2.78;0.22;;;16.50;99.00;;;;;;5072994;28;20021;-72
2023/01/04 12:16:44;;;;;;;1.58;0.20;;;16.40;99.00;;;;;;5072977;28;20028;-72
2023/01/04 12:19:13;;;;;;;;;;;16.40;99.10;;;;;;5072749;28;20031;-72
2023/01/04 12:21:39;;;;;;;1.67;0.30;;;16.50;99.00;;;;;;5072959;28;19904;-73
2023/01/04 12:24:06;;;;;;;0.82;0.10;;;16.50;99.00;;;;;;5071652;28;20065;-73
2023/01/04 12:26:32;;;;;;;1.25;0.10;;;16.40;99.00;;;;;;5072856;28;20028;-73
2023/01/04 12:29:21;;;;;;;1.77;0.30;;;16.40;99.10;;;;;;5072554;28;20025;-73
2023/01/04 12:31:47;;;;;;;0.55;0.20;;;16.50;99.10;;;;;;5064783;28;20044;-72
2023/01/04 12:34:22;;;;;;;1.67;0.20;;;16.40;99.00;;;;;;5072655;28;20553;-73
2023/01/04 12:36:54;;;;;;;1.05;0.13;;;16.50;99.20;;;;;;5072281;28;20040;-72
2023/01/04 12:39:21;;;;;;;0.93;0.10;;;16.40;99.10;;;;;;5072478;28;20063;-72
2023/01/04 12:42:02;;;;;;;0.88;0.20;;;16.50;99.10;;;;;;5071125;28;20032;-72
2023/01/04 12:44:45;;;;;;;1.00;0.10;;;16.40;99.20;;;;;;5071631;28;20024;-72
2023/01/04 12:50:10;;;;;;;0.50;0.10;;;16.40;99.10;;;;;;5072506;28;20047;-72
2023/01/04 12:52:46;;;;;;;0.80;0.45;;;16.40;99.20;;;;;;5069760;28;20072;-72
2023/01/04 12:55:32;;;;;;;1.58;0.20;;;16.40;99.20;;;;;;5072460;28;20031;-72
2023/01/04 12:58:02;;;;;;;2.05;0.17;;;16.40;99.30;;;;;;5071199;28;20469;-72
2023/01/04 13:00:49;;;;;;;0.73;0.10;;;16.40;99.40;;;;;;5072559;28;20017;-73
2023/01/04 13:03:15;;;;;;;1.27;0.20;;;16.40;99.70;;;;;;5067747;28;20029;-73
2023/01/04 13:05:54;;;;;;;1.15;0.20;;;16.40;99.70;;;;;;5072502;28;20037;-72
2023/01/04 13:08:20;;;;;;;0.40;0.10;;;16.40;99.90;;;;;;5072430;28;20020;-73
2023/01/04 13:10:46;;;;;;;0.50;0.10;;;16.40;99.90;;;;;;5071877;28;20499;-72
2023/01/04 13:13:23;;;;;;;2.90;0.10;;;16.40;99.90;;;;;;5072342;28;20021;-72
2023/01/04 13:16:08;;;;;;;0.68;0.10;;;16.40;99.90;;;;;;5072171;28;20074;-72
2023/01/04 13:18:42;;;;;;;0.63;0.17;;;16.40;99.90;;;;;;5070780;28;20048;-72
2023/01/04 13:21:28;;;;;;;0.65;0.10;;;16.50;99.90;;;;;;5070938;28;20052;-72
2023/01/04 13:23:57;;;;;;;0.80;0.10;;;16.50;99.90;;;;;;5070735;28;20021;-72
2023/01/04 13:26:36;;;;;;;0.52;0.10;;;16.50;99.90;;;;;;5072207;28;20028;-72
2023/01/04 13:29:18;;;;;;;1.15;0.25;;;16.50;99.90;;;;;;5072157;28;20094;-72
2023/01/04 13:31:54;;;;;;;1.00;0.28;;;16.50;99.90;;;;;;5072240;28;20039;-72
2023/01/04 13:34:38;;;;;;;1.08;0.30;;;16.60;99.90;;;;;;5070849;28;20104;-73
2023/01/04 13:37:17;;;;;;;1.77;0.35;;;16.60;99.90;;;;;;5072053;28;20049;-72
2023/01/04 13:39:48;;;;;;;1.80;0.22;;;16.60;99.90;;;;;;5072289;28;20405;-72
2023/01/04 13:42:34;;;;;;;1.77;0.20;;;16.70;99.90;;;;;;5071027;28;20037;-72
2023/01/04 13:45:27;;;;;;;1.05;0.28;;;16.70;99.90;;;;;;5071798;28;20056;-72
2023/01/04 13:47:57;;;;;;;3.08;0.17;;;16.70;99.90;;;;;;5071680;28;20465;-72
2023/01/04 13:50:42;;;;;;;2.17;0.30;;;16.80;99.90;;;;;;5073675;28;20025;-72
2023/01/04 13:53:27;;;;;;;3.40;0.40;;;16.80;99.90;;;;;;5076035;28;20024;-72